sensor_id;sensor_type;location;lat;lon;timestamp;P1;durP1;ratioP1;P2;durP2;ratioP2
5539;SDS011;2792;52.452;9.752;2022-11-20T00:02:10;13.93;;;9.60;;
5539;SDS011;2792;52.452;9.752;2022-11-20T00:04:37;14.45;;;9.88;;
5539;SDS011;2792;52.452;9.752;2022-11-20T00:07:05;17.20;;;9.50;;
5539;SDS011;2792;52.452;9.752;2022-11-20T00:09:32;14.57;;;9.52;;
5539;SDS011;2792;52.452;9.752;2022-11-20T00:11:58;12.60;;;9.55;;
5539;SDS011;2792;52.452;9.752;2022-11-20T00:14:25;17.75;;;10.02;;
5539;SDS011;2792;52.452;9.752;2022-11-20T00:16:51;16.65;;;10.30;;
5539;SDS011;2792;52.452;9.752;2022-11-20T00:19:18;16.27;;;10.27;;
5539;SDS011;2792;52.452;9.752;2022-11-20T00:21:45;13.77;;;9.88;;
5539;SDS011;2792;52.452;9.752;2022-11-20T00:24:13;15.93;;;9.68;;
5539;SDS011;2792;52.452;9.752;2022-11-20T00:26:39;16.23;;;10.23;;
5539;SDS011;2792;52.452;9.752;2022-11-20T00:29:08;16.17;;;10.48;;
5539;SDS011;2792;52.452;9.752;2022-11-20T00:31:35;15.60;;;9.30;;
5539;SDS011;2792;52.452;9.752;2022-11-20T00:34:01;18.02;;;11.52;;
5539;SDS011;2792;52.452;9.752;2022-11-20T00:36:28;16.17;;;9.77;;
5539;SDS011;2792;52.452;9.752;2022-11-20T00:38:58;14.80;;;9.93;;
5539;SDS011;2792;52.452;9.752;2022-11-20T00:41:27;15.27;;;10.32;;
5539;SDS011;2792;52.452;9.752;2022-11-20T00:43:55;15.68;;;9.98;;
5539;SDS011;2792;52.452;9.752;2022-11-20T00:46:22;13.00;;;9.13;;
5539;SDS011;2792;52.452;9.752;2022-11-20T00:48:49;15.23;;;10.55;;
5539;SDS011;2792;52.452;9.752;2022-11-20T00:51:17;13.43;;;9.75;;
5539;SDS011;2792;52.452;9.752;2022-11-20T00:53:44;15.70;;;9.40;;
5539;SDS011;2792;52.452;9.752;2022-11-20T00:56:12;14.23;;;9.57;;
5539;SDS011;2792;52.452;9.752;2022-11-20T00:58:41;13.60;;;9.27;;
5539;SDS011;2792;52.452;9.752;2022-11-20T01:01:09;12.70;;;9.25;;
5539;SDS011;2792;52.452;9.752;2022-11-20T01:03:37;15.05;;;9.30;;
5539;SDS011;2792;52.452;9.752;2022-11-20T01:06:06;11.68;;;8.82;;
5539;SDS011;2792;52.452;9.752;2022-11-20T01:08:34;10.95;;;8.13;;
5539;SDS011;2792;52.452;9.752;2022-11-20T01:11:01;14.90;;;9.38;;
5539;SDS011;2792;52.452;9.752;2022-11-20T01:13:29;12.32;;;8.73;;
5539;SDS011;2792;52.452;9.752;2022-11-20T01:16:08;12.18;;;8.90;;
5539;SDS011;2792;52.452;9.752;2022-11-20T01:18:37;13.40;;;8.20;;
5539;SDS011;2792;52.452;9.752;2022-11-20T01:21:05;12.25;;;8.15;;
5539;SDS011;2792;52.452;9.752;2022-11-20T01:23:33;13.00;;;9.30;;
5539;SDS011;2792;52.452;9.752;2022-11-20T01:26:02;12.18;;;8.60;;
5539;SDS011;2792;52.452;9.752;2022-11-20T01:28:29;13.68;;;8.60;;
5539;SDS011;2792;52.452;9.752;2022-11-20T01:30:56;12.68;;;8.63;;
5539;SDS011;2792;52.452;9.752;2022-11-20T01:33:24;12.50;;;8.57;;
5539;SDS011;2792;52.452;9.752;2022-11-20T01:35:51;12.25;;;8.52;;
5539;SDS011;2792;52.452;9.752;2022-11-20T01:38:18;12.13;;;8.10;;
5539;SDS011;2792;52.452;9.752;2022-11-20T01:40:53;14.07;;;8.90;;
5539;SDS011;2792;52.452;9.752;2022-11-20T01:43:20;12.65;;;8.45;;
5539;SDS011;2792;52.452;9.752;2022-11-20T01:45:59;16.07;;;9.03;;
5539;SDS011;2792;52.452;9.752;2022-11-20T01:48:32;13.27;;;8.38;;
5539;SDS011;2792;52.452;9.752;2022-11-20T01:51:01;15.30;;;9.00;;
5539;SDS011;2792;52.452;9.752;2022-11-20T01:53:30;13.73;;;8.90;;
5539;SDS011;2792;52.452;9.752;2022-11-20T01:55:59;14.38;;;9.18;;
5539;SDS011;2792;52.452;9.752;2022-11-20T01:58:28;18.02;;;9.68;;
5539;SDS011;2792;52.452;9.752;2022-11-20T02:00:56;12.65;;;8.05;;
5539;SDS011;2792;52.452;9.752;2022-11-20T02:03:23;15.25;;;9.00;;
5539;SDS011;2792;52.452;9.752;2022-11-20T02:05:51;12.57;;;9.27;;
5539;SDS011;2792;52.452;9.752;2022-11-20T02:08:22;13.57;;;9.88;;
5539;SDS011;2792;52.452;9.752;2022-11-20T02:10:49;14.95;;;9.50;;
5539;SDS011;2792;52.452;9.752;2022-11-20T02:13:16;14.60;;;9.80;;
5539;SDS011;2792;52.452;9.752;2022-11-20T02:16:00;16.95;;;9.60;;
5539;SDS011;2792;52.452;9.752;2022-11-20T02:18:27;16.55;;;9.13;;
5539;SDS011;2792;52.452;9.752;2022-11-20T02:20:57;13.02;;;8.77;;
5539;SDS011;2792;52.452;9.752;2022-11-20T02:23:28;13.20;;;9.02;;
5539;SDS011;2792;52.452;9.752;2022-11-20T02:25:59;12.57;;;8.40;;
5539;SDS011;2792;52.452;9.752;2022-11-20T02:28:27;14.45;;;8.85;;
5539;SDS011;2792;52.452;9.752;2022-11-20T02:30:53;13.25;;;9.07;;
5539;SDS011;2792;52.452;9.752;2022-11-20T02:33:20;14.60;;;8.53;;
5539;SDS011;2792;52.452;9.752;2022-11-20T02:35:46;12.88;;;9.23;;
5539;SDS011;2792;52.452;9.752;2022-11-20T02:38:13;10.27;;;7.77;;
5539;SDS011;2792;52.452;9.752;2022-11-20T02:40:40;11.55;;;7.95;;
5539;SDS011;2792;52.452;9.752;2022-11-20T02:43:08;14.63;;;9.15;;
5539;SDS011;2792;52.452;9.752;2022-11-20T02:45:35;16.48;;;8.95;;
5539;SDS011;2792;52.452;9.752;2022-11-20T02:48:02;15.82;;;8.80;;
5539;SDS011;2792;52.452;9.752;2022-11-20T02:50:28;13.25;;;8.27;;
5539;SDS011;2792;52.452;9.752;2022-11-20T02:52:55;15.73;;;8.85;;
5539;SDS011;2792;52.452;9.752;2022-11-20T02:55:21;12.83;;;8.43;;
5539;SDS011;2792;52.452;9.752;2022-11-20T02:57:48;12.27;;;8.90;;
5539;SDS011;2792;52.452;9.752;2022-11-20T03:00:16;11.02;;;8.48;;
5539;SDS011;2792;52.452;9.752;2022-11-20T03:02:43;11.23;;;7.97;;
5539;SDS011;2792;52.452;9.752;2022-11-20T03:05:09;11.35;;;8.00;;
5539;SDS011;2792;52.452;9.752;2022-11-20T03:07:36;10.43;;;7.70;;
5539;SDS011;2792;52.452;9.752;2022-11-20T03:10:03;12.60;;;8.32;;
5539;SDS011;2792;52.452;9.752;2022-11-20T03:12:30;10.88;;;7.35;;
5539;SDS011;2792;52.452;9.752;2022-11-20T03:14:56;11.52;;;7.90;;
5539;SDS011;2792;52.452;9.752;2022-11-20T03:17:24;12.38;;;8.32;;
5539;SDS011;2792;52.452;9.752;2022-11-20T03:19:51;10.73;;;7.85;;
5539;SDS011;2792;52.452;9.752;2022-11-20T03:22:17;9.90;;;6.93;;
5539;SDS011;2792;52.452;9.752;2022-11-20T03:24:44;9.65;;;7.70;;
5539;SDS011;2792;52.452;9.752;2022-11-20T03:27:11;10.68;;;7.85;;
5539;SDS011;2792;52.452;9.752;2022-11-20T03:29:37;10.60;;;7.95;;
5539;SDS011;2792;52.452;9.752;2022-11-20T03:32:04;10.82;;;7.32;;
5539;SDS011;2792;52.452;9.752;2022-11-20T03:34:32;11.82;;;7.88;;
5539;SDS011;2792;52.452;9.752;2022-11-20T03:36:59;10.82;;;8.20;;
5539;SDS011;2792;52.452;9.752;2022-11-20T03:39:25;11.57;;;8.15;;
5539;SDS011;2792;52.452;9.752;2022-11-20T03:41:52;12.23;;;7.47;;
5539;SDS011;2792;52.452;9.752;2022-11-20T03:44:20;10.48;;;7.38;;
5539;SDS011;2792;52.452;9.752;2022-11-20T03:46:47;12.40;;;7.70;;
5539;SDS011;2792;52.452;9.752;2022-11-20T03:49:14;10.07;;;6.85;;
5539;SDS011;2792;52.452;9.752;2022-11-20T03:51:42;9.45;;;6.72;;
5539;SDS011;2792;52.452;9.752;2022-11-20T03:54:08;9.23;;;7.47;;
5539;SDS011;2792;52.452;9.752;2022-11-20T03:56:35;11.65;;;7.65;;
5539;SDS011;2792;52.452;9.752;2022-11-20T03:59:04;9.95;;;7.00;;
5539;SDS011;2792;52.452;9.752;2022-11-20T04:01:34;9.18;;;6.60;;
5539;SDS011;2792;52.452;9.752;2022-11-20T04:04:02;9.07;;;6.70;;
5539;SDS011;2792;52.452;9.752;2022-11-20T04:06:29;10.50;;;7.17;;
5539;SDS011;2792;52.452;9.752;2022-11-20T04:08:58;12.97;;;8.63;;
5539;SDS011;2792;52.452;9.752;2022-11-20T04:11:25;10.97;;;7.20;;
5539;SDS011;2792;52.452;9.752;2022-11-20T04:13:53;10.00;;;7.10;;
5539;SDS011;2792;52.452;9.752;2022-11-20T04:16:22;12.55;;;7.97;;
5539;SDS011;2792;52.452;9.752;2022-11-20T04:18:51;8.38;;;6.68;;
5539;SDS011;2792;52.452;9.752;2022-11-20T04:21:18;10.00;;;7.22;;
5539;SDS011;2792;52.452;9.752;2022-11-20T04:23:44;14.53;;;8.23;;
5539;SDS011;2792;52.452;9.752;2022-11-20T04:26:12;9.43;;;6.77;;
5539;SDS011;2792;52.452;9.752;2022-11-20T04:28:38;11.20;;;6.97;;
5539;SDS011;2792;52.452;9.752;2022-11-20T04:31:06;8.20;;;6.20;;
5539;SDS011;2792;52.452;9.752;2022-11-20T04:33:34;12.80;;;7.97;;
5539;SDS011;2792;52.452;9.752;2022-11-20T04:36:02;15.97;;;7.87;;
5539;SDS011;2792;52.452;9.752;2022-11-20T04:38:29;8.57;;;6.57;;
5539;SDS011;2792;52.452;9.752;2022-11-20T04:40:56;9.40;;;6.80;;
5539;SDS011;2792;52.452;9.752;2022-11-20T04:43:25;8.60;;;6.60;;
5539;SDS011;2792;52.452;9.752;2022-11-20T04:45:52;9.40;;;6.93;;
5539;SDS011;2792;52.452;9.752;2022-11-20T04:48:19;11.00;;;6.88;;
5539;SDS011;2792;52.452;9.752;2022-11-20T04:50:45;9.33;;;6.57;;
5539;SDS011;2792;52.452;9.752;2022-11-20T04:53:12;8.80;;;6.40;;
5539;SDS011;2792;52.452;9.752;2022-11-20T04:55:38;8.88;;;6.07;;
5539;SDS011;2792;52.452;9.752;2022-11-20T04:58:05;7.90;;;6.57;;
5539;SDS011;2792;52.452;9.752;2022-11-20T05:00:33;8.97;;;6.23;;
5539;SDS011;2792;52.452;9.752;2022-11-20T05:03:00;9.87;;;6.70;;
5539;SDS011;2792;52.452;9.752;2022-11-20T05:05:26;10.10;;;7.23;;
5539;SDS011;2792;52.452;9.752;2022-11-20T05:07:55;12.23;;;6.60;;
5539;SDS011;2792;52.452;9.752;2022-11-20T05:10:22;7.70;;;5.80;;
5539;SDS011;2792;52.452;9.752;2022-11-20T05:12:48;7.80;;;5.73;;
5539;SDS011;2792;52.452;9.752;2022-11-20T05:15:15;8.90;;;6.33;;
5539;SDS011;2792;52.452;9.752;2022-11-20T05:17:47;7.85;;;5.75;;
5539;SDS011;2792;52.452;9.752;2022-11-20T05:20:14;9.00;;;6.37;;
5539;SDS011;2792;52.452;9.752;2022-11-20T05:22:40;8.30;;;6.28;;
5539;SDS011;2792;52.452;9.752;2022-11-20T05:25:07;10.00;;;6.40;;
5539;SDS011;2792;52.452;9.752;2022-11-20T05:27:34;8.45;;;6.03;;
5539;SDS011;2792;52.452;9.752;2022-11-20T05:30:00;8.70;;;6.50;;
5539;SDS011;2792;52.452;9.752;2022-11-20T05:32:27;6.23;;;5.50;;
5539;SDS011;2792;52.452;9.752;2022-11-20T05:34:55;8.17;;;5.47;;
5539;SDS011;2792;52.452;9.752;2022-11-20T05:37:21;10.10;;;6.80;;
5539;SDS011;2792;52.452;9.752;2022-11-20T05:39:48;7.20;;;5.37;;
5539;SDS011;2792;52.452;9.752;2022-11-20T05:42:15;9.00;;;6.07;;
5539;SDS011;2792;52.452;9.752;2022-11-20T05:45:02;7.40;;;5.67;;
5539;SDS011;2792;52.452;9.752;2022-11-20T05:47:31;7.13;;;5.27;;
5539;SDS011;2792;52.452;9.752;2022-11-20T05:50:00;8.77;;;5.73;;
5539;SDS011;2792;52.452;9.752;2022-11-20T05:52:28;7.80;;;5.90;;
5539;SDS011;2792;52.452;9.752;2022-11-20T05:54:55;6.27;;;5.00;;
5539;SDS011;2792;52.452;9.752;2022-11-20T05:57:21;7.65;;;6.00;;
5539;SDS011;2792;52.452;9.752;2022-11-20T05:59:48;8.77;;;5.70;;
5539;SDS011;2792;52.452;9.752;2022-11-20T06:02:14;10.03;;;6.20;;
5539;SDS011;2792;52.452;9.752;2022-11-20T06:04:41;8.00;;;6.13;;
5539;SDS011;2792;52.452;9.752;2022-11-20T06:07:09;9.17;;;5.97;;
5539;SDS011;2792;52.452;9.752;2022-11-20T06:09:35;7.27;;;5.00;;
5539;SDS011;2792;52.452;9.752;2022-11-20T06:12:02;7.37;;;5.60;;
5539;SDS011;2792;52.452;9.752;2022-11-20T06:14:29;9.43;;;5.80;;
5539;SDS011;2792;52.452;9.752;2022-11-20T06:16:56;7.30;;;5.78;;
5539;SDS011;2792;52.452;9.752;2022-11-20T06:19:22;9.67;;;5.17;;
5539;SDS011;2792;52.452;9.752;2022-11-20T06:21:49;8.88;;;5.45;;
5539;SDS011;2792;52.452;9.752;2022-11-20T06:24:17;8.20;;;5.40;;
5539;SDS011;2792;52.452;9.752;2022-11-20T06:26:43;8.17;;;5.53;;
5539;SDS011;2792;52.452;9.752;2022-11-20T06:29:10;8.07;;;6.00;;
5539;SDS011;2792;52.452;9.752;2022-11-20T06:31:37;10.73;;;5.70;;
5539;SDS011;2792;52.452;9.752;2022-11-20T06:34:04;7.97;;;5.97;;
5539;SDS011;2792;52.452;9.752;2022-11-20T06:36:31;6.73;;;5.23;;
5539;SDS011;2792;52.452;9.752;2022-11-20T06:38:57;7.47;;;5.67;;
5539;SDS011;2792;52.452;9.752;2022-11-20T06:41:26;9.00;;;5.93;;
5539;SDS011;2792;52.452;9.752;2022-11-20T06:43:52;7.20;;;5.40;;
5539;SDS011;2792;52.452;9.752;2022-11-20T06:46:19;8.23;;;5.57;;
5539;SDS011;2792;52.452;9.752;2022-11-20T06:48:47;7.30;;;5.80;;
5539;SDS011;2792;52.452;9.752;2022-11-20T06:51:14;8.30;;;5.85;;
5539;SDS011;2792;52.452;9.752;2022-11-20T06:53:41;8.68;;;5.50;;
5539;SDS011;2792;52.452;9.752;2022-11-20T06:56:08;8.43;;;5.97;;
5539;SDS011;2792;52.452;9.752;2022-11-20T06:58:36;8.47;;;5.93;;
5539;SDS011;2792;52.452;9.752;2022-11-20T07:01:04;7.97;;;5.70;;
5539;SDS011;2792;52.452;9.752;2022-11-20T07:03:32;10.25;;;6.63;;
5539;SDS011;2792;52.452;9.752;2022-11-20T07:05:58;9.10;;;6.13;;
5539;SDS011;2792;52.452;9.752;2022-11-20T07:08:26;7.60;;;6.00;;
5539;SDS011;2792;52.452;9.752;2022-11-20T07:10:56;7.93;;;5.90;;
5539;SDS011;2792;52.452;9.752;2022-11-20T07:13:24;8.90;;;6.40;;
5539;SDS011;2792;52.452;9.752;2022-11-20T07:15:52;9.60;;;6.60;;
5539;SDS011;2792;52.452;9.752;2022-11-20T07:18:19;10.07;;;6.83;;
5539;SDS011;2792;52.452;9.752;2022-11-20T07:20:45;8.70;;;6.00;;
5539;SDS011;2792;52.452;9.752;2022-11-20T07:23:12;9.10;;;6.43;;
5539;SDS011;2792;52.452;9.752;2022-11-20T07:25:38;7.63;;;5.80;;
5539;SDS011;2792;52.452;9.752;2022-11-20T07:28:05;6.10;;;5.03;;
5539;SDS011;2792;52.452;9.752;2022-11-20T07:30:31;7.80;;;6.00;;
5539;SDS011;2792;52.452;9.752;2022-11-20T07:32:59;9.37;;;6.67;;
5539;SDS011;2792;52.452;9.752;2022-11-20T07:35:26;9.03;;;6.50;;
5539;SDS011;2792;52.452;9.752;2022-11-20T07:37:52;9.87;;;6.37;;
5539;SDS011;2792;52.452;9.752;2022-11-20T07:40:19;8.53;;;6.50;;
5539;SDS011;2792;52.452;9.752;2022-11-20T07:42:49;7.50;;;5.53;;
5539;SDS011;2792;52.452;9.752;2022-11-20T07:45:16;7.25;;;5.45;;
5539;SDS011;2792;52.452;9.752;2022-11-20T07:47:42;8.07;;;5.93;;
5539;SDS011;2792;52.452;9.752;2022-11-20T07:50:10;7.47;;;6.20;;
5539;SDS011;2792;52.452;9.752;2022-11-20T07:52:37;10.20;;;6.97;;
5539;SDS011;2792;52.452;9.752;2022-11-20T07:55:04;8.73;;;6.10;;
5539;SDS011;2792;52.452;9.752;2022-11-20T07:57:31;7.80;;;5.73;;
5539;SDS011;2792;52.452;9.752;2022-11-20T07:59:58;7.93;;;6.27;;
5539;SDS011;2792;52.452;9.752;2022-11-20T08:02:24;8.87;;;6.07;;
5539;SDS011;2792;52.452;9.752;2022-11-20T08:04:51;9.10;;;6.27;;
5539;SDS011;2792;52.452;9.752;2022-11-20T08:07:19;7.17;;;6.00;;
5539;SDS011;2792;52.452;9.752;2022-11-20T08:09:45;7.83;;;6.30;;
5539;SDS011;2792;52.452;9.752;2022-11-20T08:12:15;8.75;;;6.57;;
5539;SDS011;2792;52.452;9.752;2022-11-20T08:15:01;8.13;;;6.43;;
5539;SDS011;2792;52.452;9.752;2022-11-20T08:17:28;9.07;;;6.23;;
5539;SDS011;2792;52.452;9.752;2022-11-20T08:19:55;8.90;;;6.93;;
5539;SDS011;2792;52.452;9.752;2022-11-20T08:22:22;7.87;;;5.90;;
5539;SDS011;2792;52.452;9.752;2022-11-20T08:24:49;12.23;;;6.97;;
5539;SDS011;2792;52.452;9.752;2022-11-20T08:27:16;8.70;;;6.03;;
5539;SDS011;2792;52.452;9.752;2022-11-20T08:29:42;8.43;;;6.10;;
5539;SDS011;2792;52.452;9.752;2022-11-20T08:32:09;8.83;;;6.30;;
5539;SDS011;2792;52.452;9.752;2022-11-20T08:34:35;10.60;;;7.07;;
5539;SDS011;2792;52.452;9.752;2022-11-20T08:37:02;6.87;;;5.60;;
5539;SDS011;2792;52.452;9.752;2022-11-20T08:39:30;7.10;;;5.73;;
5539;SDS011;2792;52.452;9.752;2022-11-20T08:41:57;9.97;;;6.13;;
5539;SDS011;2792;52.452;9.752;2022-11-20T08:44:23;8.53;;;7.63;;
5539;SDS011;2792;52.452;9.752;2022-11-20T08:46:50;7.00;;;5.83;;
5539;SDS011;2792;52.452;9.752;2022-11-20T08:49:16;12.50;;;10.13;;
5539;SDS011;2792;52.452;9.752;2022-11-20T08:51:43;11.20;;;7.20;;
5539;SDS011;2792;52.452;9.752;2022-11-20T08:54:12;10.93;;;7.03;;
5539;SDS011;2792;52.452;9.752;2022-11-20T08:56:39;9.30;;;7.40;;
5539;SDS011;2792;52.452;9.752;2022-11-20T08:59:06;8.53;;;6.40;;
5539;SDS011;2792;52.452;9.752;2022-11-20T09:01:32;10.77;;;6.77;;
5539;SDS011;2792;52.452;9.752;2022-11-20T09:04:00;7.27;;;6.17;;
5539;SDS011;2792;52.452;9.752;2022-11-20T09:06:26;8.83;;;6.23;;
5539;SDS011;2792;52.452;9.752;2022-11-20T09:08:53;9.00;;;6.70;;
5539;SDS011;2792;52.452;9.752;2022-11-20T09:11:19;9.10;;;6.83;;
5539;SDS011;2792;52.452;9.752;2022-11-20T09:13:47;9.60;;;6.83;;
5539;SDS011;2792;52.452;9.752;2022-11-20T09:16:14;9.67;;;7.23;;
5539;SDS011;2792;52.452;9.752;2022-11-20T09:18:40;9.37;;;6.77;;
5539;SDS011;2792;52.452;9.752;2022-11-20T09:21:09;8.77;;;6.77;;
5539;SDS011;2792;52.452;9.752;2022-11-20T09:23:37;11.00;;;7.07;;
5539;SDS011;2792;52.452;9.752;2022-11-20T09:26:05;10.97;;;9.10;;
5539;SDS011;2792;52.452;9.752;2022-11-20T09:28:32;9.40;;;7.30;;
5539;SDS011;2792;52.452;9.752;2022-11-20T09:31:00;7.90;;;6.60;;
5539;SDS011;2792;52.452;9.752;2022-11-20T09:33:27;8.30;;;6.33;;
5539;SDS011;2792;52.452;9.752;2022-11-20T09:35:53;8.47;;;6.13;;
5539;SDS011;2792;52.452;9.752;2022-11-20T09:38:20;8.60;;;6.33;;
5539;SDS011;2792;52.452;9.752;2022-11-20T09:40:48;9.20;;;6.77;;
5539;SDS011;2792;52.452;9.752;2022-11-20T09:43:19;9.00;;;6.00;;
5539;SDS011;2792;52.452;9.752;2022-11-20T09:45:50;8.60;;;6.00;;
5539;SDS011;2792;52.452;9.752;2022-11-20T09:48:36;9.40;;;5.80;;
5539;SDS011;2792;52.452;9.752;2022-11-20T09:51:18;7.83;;;6.07;;
5539;SDS011;2792;52.452;9.752;2022-11-20T09:53:55;7.63;;;6.00;;
5539;SDS011;2792;52.452;9.752;2022-11-20T09:56:27;7.10;;;5.13;;
5539;SDS011;2792;52.452;9.752;2022-11-20T09:58:55;8.10;;;5.40;;
5539;SDS011;2792;52.452;9.752;2022-11-20T10:01:26;7.40;;;6.17;;
5539;SDS011;2792;52.452;9.752;2022-11-20T10:03:57;7.93;;;5.33;;
5539;SDS011;2792;52.452;9.752;2022-11-20T10:06:28;7.53;;;5.10;;
5539;SDS011;2792;52.452;9.752;2022-11-20T10:08:59;8.33;;;5.43;;
5539;SDS011;2792;52.452;9.752;2022-11-20T10:11:32;6.97;;;5.60;;
5539;SDS011;2792;52.452;9.752;2022-11-20T10:14:03;5.87;;;5.30;;
5539;SDS011;2792;52.452;9.752;2022-11-20T10:16:38;9.20;;;6.40;;
5539;SDS011;2792;52.452;9.752;2022-11-20T10:19:13;6.47;;;5.20;;
5539;SDS011;2792;52.452;9.752;2022-11-20T10:21:52;8.60;;;5.10;;
5539;SDS011;2792;52.452;9.752;2022-11-20T10:24:34;6.17;;;4.80;;
5539;SDS011;2792;52.452;9.752;2022-11-20T10:27:09;8.30;;;5.50;;
5539;SDS011;2792;52.452;9.752;2022-11-20T10:29:47;7.03;;;5.23;;
5539;SDS011;2792;52.452;9.752;2022-11-20T10:32:24;7.37;;;5.10;;
5539;SDS011;2792;52.452;9.752;2022-11-20T10:34:59;6.67;;;4.60;;
5539;SDS011;2792;52.452;9.752;2022-11-20T10:37:27;6.50;;;5.20;;
5539;SDS011;2792;52.452;9.752;2022-11-20T10:39:56;6.83;;;5.20;;
5539;SDS011;2792;52.452;9.752;2022-11-20T10:42:26;5.17;;;4.03;;
5539;SDS011;2792;52.452;9.752;2022-11-20T10:44:58;6.33;;;5.10;;
5539;SDS011;2792;52.452;9.752;2022-11-20T10:47:30;9.97;;;5.50;;
5539;SDS011;2792;52.452;9.752;2022-11-20T10:50:01;7.10;;;5.00;;
5539;SDS011;2792;52.452;9.752;2022-11-20T10:52:30;8.67;;;6.33;;
5539;SDS011;2792;52.452;9.752;2022-11-20T10:55:05;7.93;;;5.03;;
5539;SDS011;2792;52.452;9.752;2022-11-20T10:57:41;7.20;;;5.53;;
5539;SDS011;2792;52.452;9.752;2022-11-20T11:00:16;8.73;;;5.27;;
5539;SDS011;2792;52.452;9.752;2022-11-20T11:02:44;7.40;;;5.30;;
5539;SDS011;2792;52.452;9.752;2022-11-20T11:05:17;8.23;;;5.43;;
5539;SDS011;2792;52.452;9.752;2022-11-20T11:07:50;6.90;;;5.47;;
5539;SDS011;2792;52.452;9.752;2022-11-20T11:10:17;7.67;;;5.73;;
5539;SDS011;2792;52.452;9.752;2022-11-20T11:12:45;7.17;;;5.30;;
5539;SDS011;2792;52.452;9.752;2022-11-20T11:15:14;7.53;;;5.00;;
5539;SDS011;2792;52.452;9.752;2022-11-20T11:17:45;8.43;;;6.10;;
5539;SDS011;2792;52.452;9.752;2022-11-20T11:20:14;8.80;;;5.60;;
5539;SDS011;2792;52.452;9.752;2022-11-20T11:22:44;8.40;;;6.70;;
5539;SDS011;2792;52.452;9.752;2022-11-20T11:25:23;7.30;;;5.77;;
5539;SDS011;2792;52.452;9.752;2022-11-20T11:27:52;9.87;;;5.57;;
5539;SDS011;2792;52.452;9.752;2022-11-20T11:30:20;9.70;;;6.80;;
5539;SDS011;2792;52.452;9.752;2022-11-20T11:32:47;7.90;;;6.17;;
5539;SDS011;2792;52.452;9.752;2022-11-20T11:35:25;8.63;;;5.90;;
5539;SDS011;2792;52.452;9.752;2022-11-20T11:37:53;7.47;;;6.20;;
5539;SDS011;2792;52.452;9.752;2022-11-20T11:40:21;7.70;;;6.10;;
5539;SDS011;2792;52.452;9.752;2022-11-20T11:42:50;9.43;;;6.60;;
5539;SDS011;2792;52.452;9.752;2022-11-20T11:45:20;9.27;;;6.60;;
5539;SDS011;2792;52.452;9.752;2022-11-20T11:47:47;7.20;;;6.10;;
5539;SDS011;2792;52.452;9.752;2022-11-20T11:50:15;9.90;;;6.80;;
5539;SDS011;2792;52.452;9.752;2022-11-20T11:52:45;10.63;;;7.40;;
5539;SDS011;2792;52.452;9.752;2022-11-20T11:55:20;9.30;;;7.33;;
5539;SDS011;2792;52.452;9.752;2022-11-20T11:57:54;9.17;;;6.27;;
5539;SDS011;2792;52.452;9.752;2022-11-20T12:00:24;9.50;;;6.30;;
5539;SDS011;2792;52.452;9.752;2022-11-20T12:03:00;9.33;;;5.80;;
5539;SDS011;2792;52.452;9.752;2022-11-20T12:05:34;7.37;;;6.17;;
5539;SDS011;2792;52.452;9.752;2022-11-20T12:08:03;7.93;;;6.17;;
5539;SDS011;2792;52.452;9.752;2022-11-20T12:10:38;7.83;;;6.43;;
5539;SDS011;2792;52.452;9.752;2022-11-20T12:13:12;10.07;;;6.67;;
5539;SDS011;2792;52.452;9.752;2022-11-20T12:15:44;11.03;;;7.43;;
5539;SDS011;2792;52.452;9.752;2022-11-20T12:18:14;9.20;;;6.63;;
5539;SDS011;2792;52.452;9.752;2022-11-20T12:20:44;11.63;;;8.13;;
5539;SDS011;2792;52.452;9.752;2022-11-20T12:23:16;9.90;;;6.30;;
5539;SDS011;2792;52.452;9.752;2022-11-20T12:25:46;9.00;;;6.50;;
5539;SDS011;2792;52.452;9.752;2022-11-20T12:31:12;8.10;;;6.70;;
5539;SDS011;2792;52.452;9.752;2022-11-20T12:33:55;8.97;;;6.50;;
5539;SDS011;2792;52.452;9.752;2022-11-20T12:36:32;10.20;;;6.33;;
5539;SDS011;2792;52.452;9.752;2022-11-20T12:39:13;8.87;;;6.50;;
5539;SDS011;2792;52.452;9.752;2022-11-20T12:41:53;7.20;;;5.77;;
5539;SDS011;2792;52.452;9.752;2022-11-20T12:44:55;8.97;;;6.50;;
5539;SDS011;2792;52.452;9.752;2022-11-20T12:47:43;7.43;;;5.83;;
5539;SDS011;2792;52.452;9.752;2022-11-20T12:50:19;7.67;;;6.53;;
5539;SDS011;2792;52.452;9.752;2022-11-20T12:52:50;10.20;;;6.80;;
5539;SDS011;2792;52.452;9.752;2022-11-20T12:55:25;8.47;;;6.73;;
5539;SDS011;2792;52.452;9.752;2022-11-20T12:57:58;8.50;;;6.50;;
5539;SDS011;2792;52.452;9.752;2022-11-20T13:00:28;7.67;;;5.70;;
5539;SDS011;2792;52.452;9.752;2022-11-20T13:06:01;10.03;;;6.20;;
5539;SDS011;2792;52.452;9.752;2022-11-20T13:08:33;9.83;;;7.10;;
5539;SDS011;2792;52.452;9.752;2022-11-20T13:11:01;11.17;;;7.20;;
5539;SDS011;2792;52.452;9.752;2022-11-20T13:13:35;9.90;;;7.20;;
5539;SDS011;2792;52.452;9.752;2022-11-20T13:16:10;8.53;;;6.30;;
5539;SDS011;2792;52.452;9.752;2022-11-20T13:18:42;8.40;;;6.80;;
5539;SDS011;2792;52.452;9.752;2022-11-20T13:21:15;11.27;;;7.03;;
5539;SDS011;2792;52.452;9.752;2022-11-20T13:23:43;9.27;;;6.80;;
5539;SDS011;2792;52.452;9.752;2022-11-20T13:26:16;10.93;;;7.20;;
5539;SDS011;2792;52.452;9.752;2022-11-20T13:28:45;10.83;;;7.47;;
5539;SDS011;2792;52.452;9.752;2022-11-20T13:31:23;9.57;;;7.50;;
5539;SDS011;2792;52.452;9.752;2022-11-20T13:33:55;12.27;;;6.60;;
5539;SDS011;2792;52.452;9.752;2022-11-20T13:36:23;7.97;;;6.23;;
5539;SDS011;2792;52.452;9.752;2022-11-20T13:38:52;10.93;;;7.30;;
5539;SDS011;2792;52.452;9.752;2022-11-20T13:41:23;10.77;;;7.27;;
5539;SDS011;2792;52.452;9.752;2022-11-20T13:43:54;10.93;;;7.10;;
5539;SDS011;2792;52.452;9.752;2022-11-20T13:46:20;10.10;;;7.07;;
5539;SDS011;2792;52.452;9.752;2022-11-20T13:48:49;8.67;;;7.00;;
5539;SDS011;2792;52.452;9.752;2022-11-20T13:51:26;9.80;;;7.50;;
5539;SDS011;2792;52.452;9.752;2022-11-20T13:54:05;9.90;;;7.40;;
5539;SDS011;2792;52.452;9.752;2022-11-20T13:56:45;10.10;;;7.60;;
5539;SDS011;2792;52.452;9.752;2022-11-20T13:59:25;9.90;;;7.00;;
5539;SDS011;2792;52.452;9.752;2022-11-20T14:02:03;9.73;;;6.63;;
5539;SDS011;2792;52.452;9.752;2022-11-20T14:04:38;20.80;;;8.80;;
5539;SDS011;2792;52.452;9.752;2022-11-20T14:07:10;11.10;;;7.93;;
5539;SDS011;2792;52.452;9.752;2022-11-20T14:09:37;10.23;;;7.80;;
5539;SDS011;2792;52.452;9.752;2022-11-20T14:12:18;11.33;;;7.27;;
5539;SDS011;2792;52.452;9.752;2022-11-20T14:14:49;11.40;;;7.10;;
5539;SDS011;2792;52.452;9.752;2022-11-20T14:17:17;10.93;;;7.73;;
5539;SDS011;2792;52.452;9.752;2022-11-20T14:19:45;9.13;;;6.97;;
5539;SDS011;2792;52.452;9.752;2022-11-20T14:22:18;11.70;;;7.27;;
5539;SDS011;2792;52.452;9.752;2022-11-20T14:24:46;11.90;;;7.80;;
5539;SDS011;2792;52.452;9.752;2022-11-20T14:27:14;11.53;;;8.07;;
5539;SDS011;2792;52.452;9.752;2022-11-20T14:29:42;10.57;;;7.43;;
5539;SDS011;2792;52.452;9.752;2022-11-20T14:32:09;12.37;;;8.43;;
5539;SDS011;2792;52.452;9.752;2022-11-20T14:34:37;11.37;;;8.17;;
5539;SDS011;2792;52.452;9.752;2022-11-20T14:37:05;12.27;;;8.97;;
5539;SDS011;2792;52.452;9.752;2022-11-20T14:39:37;11.70;;;8.30;;
5539;SDS011;2792;52.452;9.752;2022-11-20T14:42:13;11.03;;;8.17;;
5539;SDS011;2792;52.452;9.752;2022-11-20T14:44:41;12.07;;;7.77;;
5539;SDS011;2792;52.452;9.752;2022-11-20T14:47:08;10.67;;;7.60;;
5539;SDS011;2792;52.452;9.752;2022-11-20T14:49:37;12.57;;;8.60;;
5539;SDS011;2792;52.452;9.752;2022-11-20T14:52:10;14.70;;;7.80;;
5539;SDS011;2792;52.452;9.752;2022-11-20T14:54:44;13.00;;;8.80;;
5539;SDS011;2792;52.452;9.752;2022-11-20T14:57:22;13.53;;;8.37;;
5539;SDS011;2792;52.452;9.752;2022-11-20T14:59:50;17.07;;;10.00;;
5539;SDS011;2792;52.452;9.752;2022-11-20T15:02:17;15.80;;;8.70;;
5539;SDS011;2792;52.452;9.752;2022-11-20T15:04:47;17.40;;;10.97;;
5539;SDS011;2792;52.452;9.752;2022-11-20T15:07:23;13.70;;;8.80;;
5539;SDS011;2792;52.452;9.752;2022-11-20T15:10:05;16.20;;;9.40;;
5539;SDS011;2792;52.452;9.752;2022-11-20T15:12:33;14.10;;;9.43;;
5539;SDS011;2792;52.452;9.752;2022-11-20T15:15:01;12.70;;;8.30;;
5539;SDS011;2792;52.452;9.752;2022-11-20T15:17:30;15.80;;;10.13;;
5539;SDS011;2792;52.452;9.752;2022-11-20T15:19:57;16.33;;;10.03;;
5539;SDS011;2792;52.452;9.752;2022-11-20T15:22:25;12.43;;;9.43;;
5539;SDS011;2792;52.452;9.752;2022-11-20T15:24:51;15.30;;;9.63;;
5539;SDS011;2792;52.452;9.752;2022-11-20T15:27:19;16.30;;;10.07;;